sensor_id;sensor_type;location;lat;lon;timestamp;pressure;altitude;pressure_sealevel;temperature;humidity
6694;BME280;3384;42.628;23.380;2022-10-31T00:00:41;94669.22;;;16.28;73.33
6694;BME280;3384;42.628;23.380;2022-10-31T00:03:08;94666.38;;;16.24;73.50
6694;BME280;3384;42.628;23.380;2022-10-31T00:05:35;94658.56;;;16.31;73.52
6694;BME280;3384;42.628;23.380;2022-10-31T00:08:02;94658.31;;;16.16;74.59
6694;BME280;3384;42.628;23.380;2022-10-31T00:10:30;94664.50;;;16.16;74.42
6694;BME280;3384;42.628;23.380;2022-10-31T00:12:57;94655.44;;;15.75;77.48
6694;BME280;3384;42.628;23.380;2022-10-31T00:15:24;94664.53;;;16.08;75.08
6694;BME280;3384;42.628;23.380;2022-10-31T00:17:50;94671.09;;;15.98;75.71
6694;BME280;3384;42.628;23.380;2022-10-31T00:20:17;94659.31;;;16.03;76.86
6694;BME280;3384;42.628;23.380;2022-10-31T00:22:44;94662.56;;;16.25;75.31
6694;BME280;3384;42.628;23.380;2022-10-31T00:25:11;94651.66;;;16.13;75.43
6694;BME280;3384;42.628;23.380;2022-10-31T00:27:39;94665.81;;;16.10;75.98
6694;BME280;3384;42.628;23.380;2022-10-31T00:30:07;94662.97;;;15.44;80.68
6694;BME280;3384;42.628;23.380;2022-10-31T00:32:34;94662.03;;;14.97;85.66
6694;BME280;3384;42.628;23.380;2022-10-31T00:35:00;94677.25;;;14.76;87.72
6694;BME280;3384;42.628;23.380;2022-10-31T00:37:27;94673.44;;;14.77;88.80
6694;BME280;3384;42.628;23.380;2022-10-31T00:39:54;94655.50;;;14.81;88.16
6694;BME280;3384;42.628;23.380;2022-10-31T00:42:20;94654.72;;;14.81;88.87
6694;BME280;3384;42.628;23.380;2022-10-31T00:44:48;94668.88;;;14.95;87.90
6694;BME280;3384;42.628;23.380;2022-10-31T00:47:15;94663.28;;;15.34;84.63
6694;BME280;3384;42.628;23.380;2022-10-31T00:49:42;94649.16;;;14.86;88.46
6694;BME280;3384;42.628;23.380;2022-10-31T00:52:09;94658.53;;;14.88;88.59
6694;BME280;3384;42.628;23.380;2022-10-31T00:54:35;94661.41;;;15.17;86.38
6694;BME280;3384;42.628;23.380;2022-10-31T00:57:02;94659.03;;;15.41;83.99
6694;BME280;3384;42.628;23.380;2022-10-31T00:59:29;94648.38;;;14.68;90.16
6694;BME280;3384;42.628;23.380;2022-10-31T01:01:57;94657.09;;;14.74;89.53
6694;BME280;3384;42.628;23.380;2022-10-31T01:04:24;94667.56;;;14.67;92.67
6694;BME280;3384;42.628;23.380;2022-10-31T01:06:51;94661.69;;;14.82;89.79
6694;BME280;3384;42.628;23.380;2022-10-31T01:09:18;94659.16;;;14.68;92.22
6694;BME280;3384;42.628;23.380;2022-10-31T01:11:45;94668.38;;;14.20;98.88
6694;BME280;3384;42.628;23.380;2022-10-31T01:14:11;94665.47;;;14.08;100.00
6694;BME280;3384;42.628;23.380;2022-10-31T01:16:38;94667.06;;;14.09;100.00
6694;BME280;3384;42.628;23.380;2022-10-31T01:19:06;94668.03;;;14.13;100.00
6694;BME280;3384;42.628;23.380;2022-10-31T01:21:33;94674.22;;;14.13;100.00
6694;BME280;3384;42.628;23.380;2022-10-31T01:24:00;94670.91;;;14.16;100.00
6694;BME280;3384;42.628;23.380;2022-10-31T01:26:29;94673.34;;;14.35;98.72
6694;BME280;3384;42.628;23.380;2022-10-31T01:28:58;94676.66;;;14.23;100.00
6694;BME280;3384;42.628;23.380;2022-10-31T01:31:27;94679.31;;;14.15;100.00
6694;BME280;3384;42.628;23.380;2022-10-31T01:33:54;94671.56;;;14.22;100.00
6694;BME280;3384;42.628;23.380;2022-10-31T01:36:26;94685.75;;;14.05;100.00
6694;BME280;3384;42.628;23.380;2022-10-31T01:38:55;94674.25;;;14.22;100.00
6694;BME280;3384;42.628;23.380;2022-10-31T01:41:24;94675.56;;;14.24;100.00
6694;BME280;3384;42.628;23.380;2022-10-31T01:43:53;94685.25;;;13.95;100.00
6694;BME280;3384;42.628;23.380;2022-10-31T01:46:23;94680.63;;;14.26;100.00
6694;BME280;3384;42.628;23.380;2022-10-31T01:48:52;94677.38;;;14.54;97.98
6694;BME280;3384;42.628;23.380;2022-10-31T01:51:21;94684.09;;;15.16;92.51
6694;BME280;3384;42.628;23.380;2022-10-31T01:53:52;94688.84;;;15.11;90.85
6694;BME280;3384;42.628;23.380;2022-10-31T01:56:22;94687.56;;;14.83;94.86
6694;BME280;3384;42.628;23.380;2022-10-31T01:58:49;94677.69;;;14.53;99.70
6694;BME280;3384;42.628;23.380;2022-10-31T02:01:16;94687.44;;;15.05;94.97
6694;BME280;3384;42.628;23.380;2022-10-31T02:03:45;94684.72;;;14.88;96.99
6694;BME280;3384;42.628;23.380;2022-10-31T02:06:21;94680.25;;;14.75;98.98
6694;BME280;3384;42.628;23.380;2022-10-31T02:08:51;94674.25;;;15.12;94.29
6694;BME280;3384;42.628;23.380;2022-10-31T02:11:18;94683.75;;;14.67;100.00
6694;BME280;3384;42.628;23.380;2022-10-31T02:13:46;94688.34;;;14.19;100.00
6694;BME280;3384;42.628;23.380;2022-10-31T02:16:13;94680.63;;;14.26;100.00
6694;BME280;3384;42.628;23.380;2022-10-31T02:18:40;94682.31;;;14.13;100.00
6694;BME280;3384;42.628;23.380;2022-10-31T02:21:11;94677.31;;;14.29;100.00
6694;BME280;3384;42.628;23.380;2022-10-31T02:24:04;94676.09;;;14.52;100.00
6694;BME280;3384;42.628;23.380;2022-10-31T02:26:52;94681.09;;;14.28;100.00
6694;BME280;3384;42.628;23.380;2022-10-31T02:29:49;94678.34;;;14.58;100.00
6694;BME280;3384;42.628;23.380;2022-10-31T02:32:25;94692.53;;;14.25;100.00
6694;BME280;3384;42.628;23.380;2022-10-31T02:34:58;94690.34;;;14.44;100.00
6694;BME280;3384;42.628;23.380;2022-10-31T02:37:34;94702.75;;;14.14;100.00
6694;BME280;3384;42.628;23.380;2022-10-31T02:40:07;94701.41;;;14.25;100.00
6694;BME280;3384;42.628;23.380;2022-10-31T02:42:44;94699.19;;;14.27;100.00
6694;BME280;3384;42.628;23.380;2022-10-31T02:45:17;94707.44;;;14.31;100.00
6694;BME280;3384;42.628;23.380;2022-10-31T02:47:48;94711.94;;;14.44;100.00
6694;BME280;3384;42.628;23.380;2022-10-31T02:50:22;94708.59;;;14.38;100.00
6694;BME280;3384;42.628;23.380;2022-10-31T02:52:52;94707.81;;;14.46;100.00
6694;BME280;3384;42.628;23.380;2022-10-31T02:55:49;94700.53;;;14.47;100.00
6694;BME280;3384;42.628;23.380;2022-10-31T02:58:21;94703.25;;;14.64;100.00
6694;BME280;3384;42.628;23.380;2022-10-31T03:01:07;94704.19;;;14.59;100.00
6694;BME280;3384;42.628;23.380;2022-10-31T03:03:46;94709.44;;;14.56;100.00
6694;BME280;3384;42.628;23.380;2022-10-31T03:06:20;94710.50;;;14.46;100.00
6694;BME280;3384;42.628;23.380;2022-10-31T03:08:54;94716.38;;;14.40;100.00
6694;BME280;3384;42.628;23.380;2022-10-31T03:11:24;94712.53;;;14.32;100.00
6694;BME280;3384;42.628;23.380;2022-10-31T03:13:58;94713.94;;;14.30;100.00
6694;BME280;3384;42.628;23.380;2022-10-31T03:16:32;94711.72;;;14.23;100.00
6694;BME280;3384;42.628;23.380;2022-10-31T03:19:07;94709.19;;;14.27;100.00
6694;BME280;3384;42.628;23.380;2022-10-31T03:21:39;94706.00;;;14.25;100.00
6694;BME280;3384;42.628;23.380;2022-10-31T03:24:09;94713.44;;;14.28;100.00
6694;BME280;3384;42.628;23.380;2022-10-31T03:26:40;94714.91;;;14.34;100.00
6694;BME280;3384;42.628;23.380;2022-10-31T03:29:10;94712.09;;;14.39;100.00
6694;BME280;3384;42.628;23.380;2022-10-31T03:31:43;94716.81;;;14.25;100.00
6694;BME280;3384;42.628;23.380;2022-10-31T03:34:14;94722.41;;;14.06;100.00
6694;BME280;3384;42.628;23.380;2022-10-31T03:36:44;94728.22;;;14.00;100.00
6694;BME280;3384;42.628;23.380;2022-10-31T03:39:14;94731.22;;;13.98;100.00
6694;BME280;3384;42.628;23.380;2022-10-31T03:41:45;94727.19;;;13.87;100.00
6694;BME280;3384;42.628;23.380;2022-10-31T03:44:16;94731.56;;;14.05;100.00
6694;BME280;3384;42.628;23.380;2022-10-31T03:46:44;94735.41;;;13.82;100.00
6694;BME280;3384;42.628;23.380;2022-10-31T03:49:11;94736.69;;;13.84;100.00
6694;BME280;3384;42.628;23.380;2022-10-31T03:51:44;94732.41;;;13.83;100.00
6694;BME280;3384;42.628;23.380;2022-10-31T03:54:22;94740.66;;;13.87;100.00
6694;BME280;3384;42.628;23.380;2022-10-31T03:56:52;94738.63;;;13.93;100.00
6694;BME280;3384;42.628;23.380;2022-10-31T03:59:24;94739.13;;;13.95;100.00
6694;BME280;3384;42.628;23.380;2022-10-31T04:01:55;94742.63;;;13.95;100.00
6694;BME280;3384;42.628;23.380;2022-10-31T04:04:24;94752.97;;;14.02;100.00
6694;BME280;3384;42.628;23.380;2022-10-31T04:06:55;94747.94;;;14.09;100.00
6694;BME280;3384;42.628;23.380;2022-10-31T04:09:25;94752.34;;;14.05;100.00
6694;BME280;3384;42.628;23.380;2022-10-31T04:11:54;94749.16;;;14.03;100.00
6694;BME280;3384;42.628;23.380;2022-10-31T04:14:25;94745.19;;;13.69;100.00
6694;BME280;3384;42.628;23.380;2022-10-31T04:16:52;94756.47;;;13.80;100.00
6694;BME280;3384;42.628;23.380;2022-10-31T04:19:19;94755.50;;;13.76;100.00
6694;BME280;3384;42.628;23.380;2022-10-31T04:21:46;94766.34;;;13.84;100.00
6694;BME280;3384;42.628;23.380;2022-10-31T04:24:14;94759.53;;;13.87;100.00
6694;BME280;3384;42.628;23.380;2022-10-31T04:26:41;94758.75;;;13.87;100.00
6694;BME280;3384;42.628;23.380;2022-10-31T04:29:07;94760.81;;;13.89;100.00
6694;BME280;3384;42.628;23.380;2022-10-31T04:31:34;94753.72;;;13.94;100.00
6694;BME280;3384;42.628;23.380;2022-10-31T04:34:01;94752.38;;;13.82;100.00
6694;BME280;3384;42.628;23.380;2022-10-31T04:36:27;94753.47;;;13.81;100.00
6694;BME280;3384;42.628;23.380;2022-10-31T04:38:54;94757.13;;;13.85;100.00
6694;BME280;3384;42.628;23.380;2022-10-31T04:41:22;94767.75;;;13.82;100.00
6694;BME280;3384;42.628;23.380;2022-10-31T04:43:49;94758.97;;;13.99;100.00
6694;BME280;3384;42.628;23.380;2022-10-31T04:46:16;94764.56;;;14.02;100.00
6694;BME280;3384;42.628;23.380;2022-10-31T04:48:43;94763.47;;;14.12;100.00
6694;BME280;3384;42.628;23.380;2022-10-31T04:51:09;94768.53;;;13.82;100.00
6694;BME280;3384;42.628;23.380;2022-10-31T04:53:36;94777.88;;;13.76;100.00
6694;BME280;3384;42.628;23.380;2022-10-31T04:56:03;94774.22;;;13.81;100.00
6694;BME280;3384;42.628;23.380;2022-10-31T04:58:32;94774.47;;;13.93;100.00
6694;BME280;3384;42.628;23.380;2022-10-31T05:00:58;94782.66;;;13.79;100.00
6694;BME280;3384;42.628;23.380;2022-10-31T05:03:25;94787.03;;;13.75;100.00
6694;BME280;3384;42.628;23.380;2022-10-31T05:05:52;94772.59;;;13.49;100.00
6694;BME280;3384;42.628;23.380;2022-10-31T05:08:19;94780.31;;;13.64;100.00
6694;BME280;3384;42.628;23.380;2022-10-31T05:10:45;94773.19;;;13.68;100.00
6694;BME280;3384;42.628;23.380;2022-10-31T05:13:12;94767.81;;;13.68;100.00
6694;BME280;3384;42.628;23.380;2022-10-31T05:15:41;94784.22;;;13.80;100.00
6694;BME280;3384;42.628;23.380;2022-10-31T05:18:08;94767.75;;;13.60;100.00
6694;BME280;3384;42.628;23.380;2022-10-31T05:20:34;94778.63;;;13.77;100.00
6694;BME280;3384;42.628;23.380;2022-10-31T05:23:01;94787.88;;;13.84;100.00
6694;BME280;3384;42.628;23.380;2022-10-31T05:25:28;94789.97;;;13.88;100.00
6694;BME280;3384;42.628;23.380;2022-10-31T05:27:56;94798.16;;;13.82;100.00
6694;BME280;3384;42.628;23.380;2022-10-31T05:30:24;94794.88;;;13.85;100.00
6694;BME280;3384;42.628;23.380;2022-10-31T05:32:56;94788.44;;;13.73;100.00
6694;BME280;3384;42.628;23.380;2022-10-31T05:35:25;94808.56;;;13.53;100.00
6694;BME280;3384;42.628;23.380;2022-10-31T05:37:52;94799.16;;;13.42;100.00
6694;BME280;3384;42.628;23.380;2022-10-31T05:40:20;94807.13;;;13.69;100.00
6694;BME280;3384;42.628;23.380;2022-10-31T05:42:50;94810.00;;;13.73;100.00
6694;BME280;3384;42.628;23.380;2022-10-31T05:45:18;94805.88;;;13.75;100.00
6694;BME280;3384;42.628;23.380;2022-10-31T05:47:50;94816.03;;;13.34;100.00
6694;BME280;3384;42.628;23.380;2022-10-31T05:50:18;94814.09;;;13.48;100.00
6694;BME280;3384;42.628;23.380;2022-10-31T05:52:45;94815.97;;;13.48;100.00
6694;BME280;3384;42.628;23.380;2022-10-31T05:55:12;94822.03;;;13.53;100.00
6694;BME280;3384;42.628;23.380;2022-10-31T05:57:39;94818.06;;;13.51;100.00
6694;BME280;3384;42.628;23.380;2022-10-31T06:00:07;94816.16;;;13.51;100.00
6694;BME280;3384;42.628;23.380;2022-10-31T06:02:34;94838.13;;;13.45;100.00
6694;BME280;3384;42.628;23.380;2022-10-31T06:05:01;94825.41;;;13.37;100.00
6694;BME280;3384;42.628;23.380;2022-10-31T06:07:33;94831.22;;;13.52;100.00
6694;BME280;3384;42.628;23.380;2022-10-31T06:10:00;94830.66;;;13.42;100.00
6694;BME280;3384;42.628;23.380;2022-10-31T06:12:27;94822.66;;;13.50;100.00
6694;BME280;3384;42.628;23.380;2022-10-31T06:14:54;94836.00;;;13.55;100.00
6694;BME280;3384;42.628;23.380;2022-10-31T06:17:21;94834.78;;;13.61;100.00
6694;BME280;3384;42.628;23.380;2022-10-31T06:19:48;94828.63;;;13.61;100.00
6694;BME280;3384;42.628;23.380;2022-10-31T06:22:15;94849.72;;;13.67;100.00
6694;BME280;3384;42.628;23.380;2022-10-31T06:24:43;94843.88;;;13.88;100.00
6694;BME280;3384;42.628;23.380;2022-10-31T06:27:10;94855.84;;;13.81;100.00
6694;BME280;3384;42.628;23.380;2022-10-31T06:29:39;94853.28;;;13.76;100.00
6694;BME280;3384;42.628;23.380;2022-10-31T06:32:09;94855.41;;;13.88;100.00
6694;BME280;3384;42.628;23.380;2022-10-31T06:34:36;94856.84;;;14.08;100.00
6694;BME280;3384;42.628;23.380;2022-10-31T06:37:03;94863.78;;;14.22;100.00
6694;BME280;3384;42.628;23.380;2022-10-31T06:39:29;94864.31;;;14.11;100.00
6694;BME280;3384;42.628;23.380;2022-10-31T06:41:58;94877.31;;;14.09;100.00
6694;BME280;3384;42.628;23.380;2022-10-31T06:44:24;94861.44;;;14.29;100.00
6694;BME280;3384;42.628;23.380;2022-10-31T06:46:51;94878.28;;;14.35;100.00
6694;BME280;3384;42.628;23.380;2022-10-31T06:49:18;94861.19;;;14.39;100.00
6694;BME280;3384;42.628;23.380;2022-10-31T06:51:47;94868.41;;;14.52;100.00
6694;BME280;3384;42.628;23.380;2022-10-31T06:54:14;94870.75;;;14.45;100.00
6694;BME280;3384;42.628;23.380;2022-10-31T06:56:41;94865.44;;;14.32;100.00
6694;BME280;3384;42.628;23.380;2022-10-31T06:59:09;94875.13;;;14.33;100.00
6694;BME280;3384;42.628;23.380;2022-10-31T07:01:43;94869.50;;;14.51;100.00
6694;BME280;3384;42.628;23.380;2022-10-31T07:04:10;94880.38;;;14.38;100.00
6694;BME280;3384;42.628;23.380;2022-10-31T07:06:38;94862.00;;;14.40;100.00
6694;BME280;3384;42.628;23.380;2022-10-31T07:09:05;94864.91;;;14.52;100.00
6694;BME280;3384;42.628;23.380;2022-10-31T07:11:32;94873.56;;;14.71;100.00
6694;BME280;3384;42.628;23.380;2022-10-31T07:13:59;94860.00;;;14.93;100.00
6694;BME280;3384;42.628;23.380;2022-10-31T07:16:36;94854.88;;;14.83;100.00
6694;BME280;3384;42.628;23.380;2022-10-31T07:19:04;94865.56;;;14.88;100.00
6694;BME280;3384;42.628;23.380;2022-10-31T07:46:24;94861.16;;;15.82;100.00
6694;BME280;3384;42.628;23.380;2022-10-31T07:48:54;94842.53;;;15.63;100.00
6694;BME280;3384;42.628;23.380;2022-10-31T07:53:59;94861.78;;;15.79;100.00
6694;BME280;3384;42.628;23.380;2022-10-31T07:56:26;94850.63;;;15.55;100.00
6694;BME280;3384;42.628;23.380;2022-10-31T07:59:01;94857.63;;;15.39;100.00
6694;BME280;3384;42.628;23.380;2022-10-31T08:01:34;94838.56;;;15.52;100.00
6694;BME280;3384;42.628;23.380;2022-10-31T08:04:01;94862.41;;;15.67;100.00
6694;BME280;3384;42.628;23.380;2022-10-31T08:06:28;94864.81;;;15.94;100.00
6694;BME280;3384;42.628;23.380;2022-10-31T08:08:55;94853.19;;;16.02;100.00
6694;BME280;3384;42.628;23.380;2022-10-31T08:11:22;94851.78;;;15.79;100.00
6694;BME280;3384;42.628;23.380;2022-10-31T08:13:49;94846.06;;;16.06;100.00
6694;BME280;3384;42.628;23.380;2022-10-31T08:16:15;94848.69;;;16.23;100.00
6694;BME280;3384;42.628;23.380;2022-10-31T08:18:44;94850.94;;;16.21;100.00
6694;BME280;3384;42.628;23.380;2022-10-31T08:21:12;94867.31;;;16.16;100.00
6694;BME280;3384;42.628;23.380;2022-10-31T08:23:39;94837.75;;;16.11;100.00
6694;BME280;3384;42.628;23.380;2022-10-31T08:26:06;94850.63;;;16.14;100.00
6694;BME280;3384;42.628;23.380;2022-10-31T08:28:35;94861.25;;;16.36;100.00
6694;BME280;3384;42.628;23.380;2022-10-31T08:31:02;94869.50;;;16.66;100.00
6694;BME280;3384;42.628;23.380;2022-10-31T08:33:30;94868.06;;;17.06;98.36
6694;BME280;3384;42.628;23.380;2022-10-31T08:35:59;94829.88;;;16.61;100.00
6694;BME280;3384;42.628;23.380;2022-10-31T08:38:25;94847.72;;;16.91;99.50
6694;BME280;3384;42.628;23.380;2022-10-31T08:40:52;94862.78;;;16.72;100.00
6694;BME280;3384;42.628;23.380;2022-10-31T08:43:19;94850.94;;;16.47;100.00
6694;BME280;3384;42.628;23.380;2022-10-31T08:45:49;94845.56;;;16.76;100.00
6694;BME280;3384;42.628;23.380;2022-10-31T08:48:19;94863.13;;;17.08;98.06
6694;BME280;3384;42.628;23.380;2022-10-31T08:50:46;94841.06;;;16.89;100.00
6694;BME280;3384;42.628;23.380;2022-10-31T08:53:18;94853.13;;;17.00;100.00
6694;BME280;3384;42.628;23.380;2022-10-31T08:55:46;94855.47;;;17.10;98.19
6694;BME280;3384;42.628;23.380;2022-10-31T08:58:18;94854.53;;;17.06;97.89
6694;BME280;3384;42.628;23.380;2022-10-31T09:03:59;94833.19;;;17.33;93.17
6694;BME280;3384;42.628;23.380;2022-10-31T09:06:35;94859.31;;;17.67;91.05
6694;BME280;3384;42.628;23.380;2022-10-31T09:09:03;94833.56;;;17.73;90.02
6694;BME280;3384;42.628;23.380;2022-10-31T09:11:31;94853.75;;;17.63;89.57
6694;BME280;3384;42.628;23.380;2022-10-31T09:14:18;94852.47;;;17.81;88.34
6694;BME280;3384;42.628;23.380;2022-10-31T09:16:51;94862.22;;;17.82;87.88
6694;BME280;3384;42.628;23.380;2022-10-31T09:19:24;94839.53;;;18.07;86.91
6694;BME280;3384;42.628;23.380;2022-10-31T09:21:52;94840.41;;;17.99;86.76
6694;BME280;3384;42.628;23.380;2022-10-31T09:24:22;94864.75;;;18.08;86.48
6694;BME280;3384;42.628;23.380;2022-10-31T09:29:24;94848.38;;;18.16;86.51
6694;BME280;3384;42.628;23.380;2022-10-31T09:32:03;94830.63;;;18.39;84.68
6694;BME280;3384;42.628;23.380;2022-10-31T09:34:42;94820.38;;;18.24;85.52
6694;BME280;3384;42.628;23.380;2022-10-31T09:39:46;94838.81;;;18.63;83.34
6694;BME280;3384;42.628;23.380;2022-10-31T09:42:27;94829.91;;;18.75;82.46
6694;BME280;3384;42.628;23.380;2022-10-31T09:45:03;94832.06;;;18.69;82.50
6694;BME280;3384;42.628;23.380;2022-10-31T09:47:43;94842.47;;;18.91;81.40
6694;BME280;3384;42.628;23.380;2022-10-31T09:50:22;94837.69;;;18.64;81.72
6694;BME280;3384;42.628;23.380;2022-10-31T09:53:02;94844.06;;;18.80;81.44
6694;BME280;3384;42.628;23.380;2022-10-31T09:55:36;94835.81;;;18.89;80.17
6694;BME280;3384;42.628;23.380;2022-10-31T09:58:09;94832.75;;;19.02;79.79
6694;BME280;3384;42.628;23.380;2022-10-31T10:00:40;94821.44;;;19.00;79.20
6694;BME280;3384;42.628;23.380;2022-10-31T10:03:13;94823.94;;;19.05;79.03
6694;BME280;3384;42.628;23.380;2022-10-31T10:05:53;94828.00;;;18.87;80.42
6694;BME280;3384;42.628;23.380;2022-10-31T10:08:26;94816.00;;;19.13;77.96
6694;BME280;3384;42.628;23.380;2022-10-31T10:11:03;94803.34;;;19.04;77.26
6694;BME280;3384;42.628;23.380;2022-10-31T10:13:46;94823.38;;;19.12;76.96
6694;BME280;3384;42.628;23.380;2022-10-31T10:16:40;94781.63;;;19.29;75.47
6694;BME280;3384;42.628;23.380;2022-10-31T10:19:18;94798.47;;;19.34;74.16
6694;BME280;3384;42.628;23.380;2022-10-31T10:21:52;94804.94;;;19.30;74.23
6694;BME280;3384;42.628;23.380;2022-10-31T10:24:33;94809.56;;;19.53;73.21
6694;BME280;3384;42.628;23.380;2022-10-31T10:27:12;94800.50;;;19.49;72.44
6694;BME280;3384;42.628;23.380;2022-10-31T10:29:49;94785.22;;;19.45;72.38
6694;BME280;3384;42.628;23.380;2022-10-31T10:32:20;94772.13;;;19.62;71.63
6694;BME280;3384;42.628;23.380;2022-10-31T10:34:53;94790.09;;;19.91;71.25
6694;BME280;3384;42.628;23.380;2022-10-31T10:37:32;94801.84;;;19.95;70.42
6694;BME280;3384;42.628;23.380;2022-10-31T10:40:08;94776.81;;;19.89;69.81
6694;BME280;3384;42.628;23.380;2022-10-31T10:42:41;94769.81;;;19.76;69.48
6694;BME280;3384;42.628;23.380;2022-10-31T10:45:29;94761.66;;;19.76;69.79
6694;BME280;3384;42.628;23.380;2022-10-31T10:48:16;94765.88;;;20.01;69.38
6694;BME280;3384;42.628;23.380;2022-10-31T10:50:48;94768.94;;;20.12;68.64
6694;BME280;3384;42.628;23.380;2022-10-31T10:53:39;94781.44;;;20.01;68.18
6694;BME280;3384;42.628;23.380;2022-10-31T10:56:33;94778.44;;;20.06;68.37
6694;BME280;3384;42.628;23.380;2022-10-31T10:59:03;94763.88;;;19.98;68.10
6694;BME280;3384;42.628;23.380;2022-10-31T11:01:30;94776.22;;;19.96;69.30
6694;BME280;3384;42.628;23.380;2022-10-31T11:03:57;94763.06;;;19.98;68.54
6694;BME280;3384;42.628;23.380;2022-10-31T11:06:28;94768.31;;;19.91;69.16
6694;BME280;3384;42.628;23.380;2022-10-31T11:08:54;94733.44;;;19.81;69.58
6694;BME280;3384;42.628;23.380;2022-10-31T11:11:26;94769.50;;;20.05;68.15
6694;BME280;3384;42.628;23.380;2022-10-31T11:13:59;94763.00;;;20.10;67.48
6694;BME280;3384;42.628;23.380;2022-10-31T11:16:32;94733.41;;;20.20;66.90
6694;BME280;3384;42.628;23.380;2022-10-31T11:19:14;94743.44;;;20.32;66.50
6694;BME280;3384;42.628;23.380;2022-10-31T11:21:44;94740.00;;;20.35;66.46
6694;BME280;3384;42.628;23.380;2022-10-31T11:24:16;94751.28;;;20.49;66.21
6694;BME280;3384;42.628;23.380;2022-10-31T11:26:46;94739.13;;;20.46;65.41
6694;BME280;3384;42.628;23.380;2022-10-31T11:29:16;94740.56;;;20.71;64.49
6694;BME280;3384;42.628;23.380;2022-10-31T11:31:46;94732.63;;;20.66;63.67
6694;BME280;3384;42.628;23.380;2022-10-31T11:34:27;94740.03;;;20.66;63.23
6694;BME280;3384;42.628;23.380;2022-10-31T11:37:02;94740.03;;;20.66;63.23
6694;BME280;3384;42.628;23.380;2022-10-31T11:39:30;94721.50;;;20.56;64.01
6694;BME280;3384;42.628;23.380;2022-10-31T11:42:00;94718.94;;;20.63;63.66
6694;BME280;3384;42.628;23.380;2022-10-31T11:44:30;94724.63;;;20.73;63.42
6694;BME280;3384;42.628;23.380;2022-10-31T11:52:26;94735.09;;;20.71;62.85
6694;BME280;3384;42.628;23.380;2022-10-31T12:13:11;94707.34;;;20.66;62.48
6694;BME280;3384;42.628;23.380;2022-10-31T12:15:47;94709.69;;;20.83;62.64
6694;BME280;3384;42.628;23.380;2022-10-31T12:18:32;94725.69;;;21.00;61.29
6694;BME280;3384;42.628;23.380;2022-10-31T12:21:17;94701.94;;;20.85;61.97
6694;BME280;3384;42.628;23.380;2022-10-31T12:23:59;94705.66;;;20.77;62.43
6694;BME280;3384;42.628;23.380;2022-10-31T12:26:37;94715.84;;;20.80;62.83
6694;BME280;3384;42.628;23.380;2022-10-31T12:29:17;94697.81;;;21.06;62.18
6694;BME280;3384;42.628;23.380;2022-10-31T12:31:58;94699.75;;;21.06;61.72
6694;BME280;3384;42.628;23.380;2022-10-31T12:34:45;94699.06;;;21.28;61.43
6694;BME280;3384;42.628;23.380;2022-10-31T12:37:20;94711.47;;;21.25;60.75
6694;BME280;3384;42.628;23.380;2022-10-31T12:40:00;94711.78;;;21.20;60.56
6694;BME280;3384;42.628;23.380;2022-10-31T12:42:41;94707.63;;;21.26;60.10
6694;BME280;3384;42.628;23.380;2022-10-31T12:45:35;94688.09;;;21.24;60.38
6694;BME280;3384;42.628;23.380;2022-10-31T12:51:13;94695.63;;;21.31;60.08
6694;BME280;3384;42.628;23.380;2022-10-31T12:53:52;94689.91;;;21.36;60.05
6694;BME280;3384;42.628;23.380;2022-10-31T12:56:35;94716.19;;;21.44;59.60
6694;BME280;3384;42.628;23.380;2022-10-31T12:59:10;94698.97;;;21.40;59.62
6694;BME280;3384;42.628;23.380;2022-10-31T13:01:45;94716.63;;;21.46;59.51
6694;BME280;3384;42.628;23.380;2022-10-31T13:04:17;94711.72;;;21.36;59.36
6694;BME280;3384;42.628;23.380;2022-10-31T13:06:48;94708.44;;;21.46;59.17
6694;BME280;3384;42.628;23.380;2022-10-31T13:09:20;94702.34;;;21.52;59.39
6694;BME280;3384;42.628;23.380;2022-10-31T13:11:53;94705.41;;;21.51;59.18
6694;BME280;3384;42.628;23.380;2022-10-31T13:14:26;94705.00;;;21.49;59.32
6694;BME280;3384;42.628;23.380;2022-10-31T13:16:56;94719.41;;;21.49;59.57
6694;BME280;3384;42.628;23.380;2022-10-31T13:19:25;94702.63;;;21.47;59.01
6694;BME280;3384;42.628;23.380;2022-10-31T13:24:34;94696.94;;;21.37;59.97
6694;BME280;3384;42.628;23.380;2022-10-31T13:29:39;94708.56;;;21.34;59.33
6694;BME280;3384;42.628;23.380;2022-10-31T13:48:50;94700.09;;;21.39;59.67
6694;BME280;3384;42.628;23.380;2022-10-31T13:59:37;94709.34;;;21.34;60.30
6694;BME280;3384;42.628;23.380;2022-10-31T14:02:14;94687.44;;;21.31;60.10
6694;BME280;3384;42.628;23.380;2022-10-31T14:04:47;94712.94;;;21.38;60.59
6694;BME280;3384;42.628;23.380;2022-10-31T14:07:16;94707.53;;;21.23;61.04
6694;BME280;3384;42.628;23.380;2022-10-31T14:09:53;94708.19;;;21.16;61.57
6694;BME280;3384;42.628;23.380;2022-10-31T14:12:25;94728.38;;;21.15;61.42
6694;BME280;3384;42.628;23.380;2022-10-31T14:14:57;94704.56;;;21.12;61.81
6694;BME280;3384;42.628;23.380;2022-10-31T14:17:29;94708.47;;;20.96;62.57
6694;BME280;3384;42.628;23.380;2022-10-31T14:20:34;94708.97;;;21.01;62.73
6694;BME280;3384;42.628;23.380;2022-10-31T14:23:36;94707.41;;;21.00;62.59
6694;BME280;3384;42.628;23.380;2022-10-31T14:26:32;94706.41;;;21.08;62.15
6694;BME280;3384;42.628;23.380;2022-10-31T14:29:25;94704.84;;;21.07;62.12
6694;BME280;3384;42.628;23.380;2022-10-31T14:32:01;94707.75;;;20.99;61.92
6694;BME280;3384;42.628;23.380;2022-10-31T14:34:34;94712.69;;;20.93;62.08
6694;BME280;3384;42.628;23.380;2022-10-31T14:37:20;94724.56;;;20.85;62.13
6694;BME280;3384;42.628;23.380;2022-10-31T14:40:16;94699.16;;;20.81;62.28
6694;BME280;3384;42.628;23.380;2022-10-31T14:43:04;94702.50;;;20.75;62.64
6694;BME280;3384;42.628;23.380;2022-10-31T14:45:49;94700.91;;;20.74;62.73
6694;BME280;3384;42.628;23.380;2022-10-31T14:48:36;94712.41;;;20.83;61.77
6694;BME280;3384;42.628;23.380;2022-10-31T14:51:10;94700.22;;;20.77;62.00
6694;BME280;3384;42.628;23.380;2022-10-31T14:53:45;94702.41;;;20.71;62.12
6694;BME280;3384;42.628;23.380;2022-10-31T14:58:45;94694.84;;;20.65;62.69
6694;BME280;3384;42.628;23.380;2022-10-31T15:01:21;94708.47;;;20.80;62.62
6694;BME280;3384;42.628;23.380;2022-10-31T15:03:49;94696.97;;;20.71;62.80